Time;durP1;ratioP1;P1;durP2;ratioP2;P2;SDS_P1;SDS_P2;PMS_P1;PMS_P2;Temp;Humidity;BMP_temperature;BMP_pressure;BME280_temperature;BME280_humidity;BME280_pressure;Samples;Min_cycle;Max_cycle;Signal;HPM_P1;HPM_P2
2023/05/18 00:01:52;;;;;;;8.50;5.60;;;13.40;91.60;;;;;;5021638;28;20582;-65
2023/05/18 00:04:22;;;;;;;6.17;5.00;;;13.50;91.60;;;;;;5024052;28;20419;-65
2023/05/18 00:06:57;;;;;;;10.70;4.87;;;13.40;91.50;;;;;;5020360;28;20471;-64
2023/05/18 00:09:26;;;;;;;8.40;6.63;;;13.40;91.50;;;;;;5021022;28;20462;-64
2023/05/18 00:11:52;;;;;;;8.47;7.30;;;13.40;91.90;;;;;;5015990;28;20543;-64
2023/05/18 00:14:19;;;;;;;9.57;6.90;;;13.30;92.50;;;;;;5016355;28;20430;-64
2023/05/18 00:16:44;;;;;;;12.40;7.07;;;13.30;92.80;;;;;;5021146;28;20435;-64
2023/05/18 00:19:13;;;;;;;8.20;6.73;;;13.20;93.10;;;;;;5021137;28;20450;-64
2023/05/18 00:21:40;;;;;;;8.73;7.10;;;13.10;93.60;;;;;;5023433;28;20196;-64
2023/05/18 00:24:07;;;;;;;9.50;6.90;;;13.10;94.00;;;;;;5025703;28;20936;-65
2023/05/18 00:26:32;;;;;;;11.07;6.50;;;13.00;94.40;;;;;;5021955;28;21047;-65
2023/05/18 00:28:58;;;;;;;9.70;6.73;;;12.90;94.80;;;;;;5021714;28;20466;-66
2023/05/18 00:31:23;;;;;;;11.33;7.10;;;12.90;95.00;;;;;;5022212;28;20176;-65
2023/05/18 00:33:49;;;;;;;9.50;6.20;;;12.80;95.40;;;;;;5023611;28;20346;-65
2023/05/18 00:36:14;;;;;;;10.57;5.77;;;12.80;95.80;;;;;;5027100;28;20200;-66
2023/05/18 00:38:40;;;;;;;8.20;5.63;;;12.70;95.90;;;;;;5021873;28;20203;-66
2023/05/18 00:41:05;;;;;;;9.10;5.70;;;12.70;96.10;;;;;;5024936;28;20181;-65
2023/05/18 00:43:31;;;;;;;7.13;6.10;;;12.70;96.40;;;;;;5024533;28;20192;-65
2023/05/18 00:45:56;;;;;;;7.13;6.33;;;12.60;96.40;;;;;;5016276;28;20193;-65
2023/05/18 00:48:22;;;;;;;11.37;6.30;;;12.60;96.50;;;;;;5022576;28;20220;-65
2023/05/18 00:50:48;;;;;;;9.70;7.37;;;12.60;96.60;;;;;;5030118;28;20368;-65
2023/05/18 00:53:13;;;;;;;9.50;5.97;;;12.50;96.70;;;;;;5020629;28;20740;-65
2023/05/18 00:55:39;;;;;;;9.53;5.80;;;12.50;96.80;;;;;;5018860;28;20184;-65
2023/05/18 00:58:04;;;;;;;12.47;5.73;;;12.50;97.00;;;;;;5019745;28;20562;-65
2023/05/18 01:00:32;;;;;;;6.60;5.53;;;12.50;97.10;;;;;;5015997;28;20578;-65
2023/05/18 01:02:59;;;;;;;7.33;5.63;;;12.50;97.20;;;;;;5022131;28;20188;-65
2023/05/18 01:05:24;;;;;;;9.13;6.63;;;12.40;97.30;;;;;;5022946;28;20439;-65
2023/05/18 01:07:50;;;;;;;12.53;6.97;;;12.40;97.50;;;;;;5023840;28;20496;-65
2023/05/18 01:10:18;;;;;;;9.13;6.00;;;12.40;97.90;;;;;;5019573;28;20177;-65
2023/05/18 01:12:49;;;;;;;8.73;6.20;;;12.40;98.00;;;;;;5020072;28;20189;-65
2023/05/18 01:15:22;;;;;;;7.90;5.83;;;12.30;98.30;;;;;;5018706;28;20446;-65
2023/05/18 01:18:16;;;;;;;8.23;5.87;;;12.30;98.60;;;;;;5015074;28;20440;-65
2023/05/18 01:21:12;;;;;;;11.03;5.80;;;12.30;98.80;;;;;;5020206;28;20526;-65
2023/05/18 01:23:59;;;;;;;10.20;5.80;;;12.30;98.90;;;;;;5013168;28;20510;-65
2023/05/18 01:26:31;;;;;;;10.63;6.50;;;12.30;98.90;;;;;;5023974;28;20494;-65
2023/05/18 01:29:03;;;;;;;8.17;5.60;;;12.30;99.10;;;;;;5022582;28;20815;-65
2023/05/18 01:31:30;;;;;;;8.00;5.70;;;12.20;99.20;;;;;;5025564;28;20513;-65
2023/05/18 01:33:55;;;;;;;9.47;6.40;;;12.20;99.30;;;;;;5021765;28;20438;-65
2023/05/18 01:36:21;;;;;;;7.37;5.40;;;12.10;99.30;;;;;;5029923;28;20501;-65
2023/05/18 01:38:47;;;;;;;8.63;6.13;;;12.10;99.40;;;;;;5025114;28;20274;-65
2023/05/18 01:41:30;;;;;;;8.23;5.30;;;12.00;99.60;;;;;;5022111;28;20238;-65
2023/05/18 01:44:16;;;;;;;6.80;4.67;;;11.90;99.70;;;;;;5025199;28;20431;-65
2023/05/18 01:46:47;;;;;;;8.90;5.33;;;11.90;99.80;;;;;;5020257;28;20458;-65
2023/05/18 01:49:22;;;;;;;8.60;5.47;;;11.90;99.80;;;;;;5021158;28;20454;-65
2023/05/18 01:51:50;;;;;;;7.40;5.30;;;11.90;99.90;;;;;;5020540;28;20888;-65
2023/05/18 01:54:19;;;;;;;5.33;4.80;;;11.80;99.90;;;;;;5020357;28;20437;-65
2023/05/18 01:56:48;;;;;;;8.27;5.23;;;11.80;99.90;;;;;;5019904;28;20523;-65
2023/05/18 01:59:14;;;;;;;8.90;5.00;;;11.70;99.90;;;;;;5019624;28;20456;-65
2023/05/18 02:01:39;;;;;;;7.37;5.43;;;11.70;99.90;;;;;;5017713;28;20552;-65
2023/05/18 02:04:09;;;;;;;9.43;4.70;;;11.70;99.90;;;;;;5015736;28;20470;-65
2023/05/18 02:06:35;;;;;;;5.77;4.57;;;11.70;99.90;;;;;;5046378;28;20228;-65
2023/05/18 02:09:01;;;;;;;9.07;4.57;;;11.70;99.90;;;;;;5016105;28;20451;-65
2023/05/18 02:11:27;;;;;;;14.30;4.90;;;11.70;99.90;;;;;;5013834;28;20444;-65
2023/05/18 02:13:52;;;;;;;8.73;4.67;;;11.60;99.90;;;;;;5018027;28;20188;-65
2023/05/18 02:16:18;;;;;;;9.23;4.80;;;11.60;99.90;;;;;;5012557;28;20673;-65
2023/05/18 02:18:44;;;;;;;7.33;4.53;;;11.60;99.90;;;;;;5027442;28;20876;-65
2023/05/18 02:21:10;;;;;;;6.40;4.37;;;11.60;99.90;;;;;;5015812;28;20462;-65
2023/05/18 02:23:35;;;;;;;7.40;4.63;;;11.60;99.90;;;;;;5019476;28;20180;-65
2023/05/18 02:26:01;;;;;;;5.03;4.53;;;11.60;99.90;;;;;;5020522;28;20177;-65
2023/05/18 02:28:27;;;;;;;9.50;5.27;;;11.50;99.90;;;;;;5023429;28;20242;-65
2023/05/18 02:30:52;;;;;;;7.53;4.70;;;11.50;99.90;;;;;;5016171;28;20256;-65
2023/05/18 02:33:18;;;;;;;7.10;4.87;;;11.50;99.90;;;;;;5020864;28;20194;-65
2023/05/18 02:35:44;;;;;;;6.23;3.87;;;11.50;99.90;;;;;;5018894;28;20181;-65
2023/05/18 02:38:10;;;;;;;9.00;4.47;;;11.40;99.90;;;;;;5022082;28;20493;-65
2023/05/18 02:40:36;;;;;;;11.90;4.80;;;11.40;99.90;;;;;;5021357;28;20479;-65
2023/05/18 02:43:01;;;;;;;9.50;4.97;;;11.40;99.90;;;;;;5018705;28;20435;-65
2023/05/18 02:45:27;;;;;;;6.43;4.30;;;11.40;99.90;;;;;;5015265;28;20196;-66
2023/05/18 02:47:53;;;;;;;5.97;4.97;;;11.40;99.90;;;;;;5023260;28;20218;-66
2023/05/18 02:50:18;;;;;;;7.07;4.33;;;11.30;99.90;;;;;;5027620;28;20212;-66
2023/05/18 02:52:48;;;;;;;10.60;4.80;;;11.30;99.90;;;;;;5025327;28;20210;-66
2023/05/18 02:55:14;;;;;;;10.63;4.83;;;11.30;99.90;;;;;;5031453;28;20191;-63
2023/05/18 02:57:45;;;;;;;4.50;3.80;;;11.30;99.90;;;;;;5016738;28;20766;-64
2023/05/18 03:00:13;;;;;;;10.50;4.20;;;11.30;99.90;;;;;;5020317;28;20189;-65
2023/05/18 03:02:39;;;;;;;12.20;4.90;;;11.20;99.90;;;;;;5019620;28;20427;-64
2023/05/18 03:05:05;;;;;;;9.10;4.93;;;11.20;99.90;;;;;;5019954;28;20458;-65
2023/05/18 03:07:31;;;;;;;11.57;5.73;;;11.10;99.90;;;;;;5018459;28;20270;-64
2023/05/18 03:09:57;;;;;;;8.50;4.60;;;11.10;99.90;;;;;;5020421;28;20901;-64
2023/05/18 03:12:23;;;;;;;10.23;4.80;;;11.10;99.90;;;;;;5024040;28;20438;-64
2023/05/18 03:14:48;;;;;;;7.33;4.40;;;11.10;99.90;;;;;;5020478;28;20799;-64
2023/05/18 03:17:14;;;;;;;8.80;4.40;;;11.10;99.90;;;;;;5008576;28;20545;-64
2023/05/18 03:19:39;;;;;;;8.00;4.73;;;11.10;99.90;;;;;;5018057;28;20251;-64
2023/05/18 03:22:05;;;;;;;7.43;4.67;;;11.00;99.90;;;;;;5012312;28;20629;-64
2023/05/18 03:24:38;;;;;;;6.63;4.50;;;11.00;99.90;;;;;;5018016;28;20207;-64
2023/05/18 03:27:07;;;;;;;8.70;5.03;;;11.00;99.90;;;;;;5016258;28;20204;-64
2023/05/18 03:29:35;;;;;;;10.57;5.13;;;11.00;99.90;;;;;;5015042;28;20455;-64
2023/05/18 03:32:01;;;;;;;8.50;4.77;;;11.00;99.90;;;;;;5024791;28;20419;-65
2023/05/18 03:34:26;;;;;;;7.57;4.70;;;10.90;99.90;;;;;;5027205;28;20424;-65
2023/05/18 03:36:53;;;;;;;6.90;5.10;;;10.90;99.90;;;;;;5022472;28;20200;-65
2023/05/18 03:39:19;;;;;;;7.03;5.10;;;10.90;99.90;;;;;;5028236;28;20857;-65
2023/05/18 03:41:45;;;;;;;6.83;4.70;;;10.90;99.90;;;;;;5019470;28;20431;-65
2023/05/18 03:44:10;;;;;;;7.53;4.60;;;10.90;99.90;;;;;;5015680;28;20335;-65
2023/05/18 03:46:36;;;;;;;10.20;4.83;;;10.80;99.90;;;;;;5017316;28;20200;-65
2023/05/18 03:49:03;;;;;;;6.00;5.30;;;10.80;99.90;;;;;;5017083;28;20208;-65
2023/05/18 03:51:30;;;;;;;5.83;4.60;;;10.80;99.90;;;;;;5022859;28;20566;-65
2023/05/18 03:53:55;;;;;;;7.80;5.33;;;10.80;99.90;;;;;;5018869;28;20523;-65
2023/05/18 03:56:22;;;;;;;7.67;5.07;;;10.80;99.90;;;;;;5017458;28;20590;-65
2023/05/18 03:58:47;;;;;;;14.03;5.47;;;10.80;99.90;;;;;;5012128;28;20686;-65
2023/05/18 04:01:13;;;;;;;10.57;4.87;;;10.80;99.90;;;;;;5011237;28;21371;-64
2023/05/18 04:03:39;;;;;;;6.73;4.97;;;10.80;99.90;;;;;;5009316;28;20192;-67
2023/05/18 04:06:05;;;;;;;10.80;4.60;;;10.80;99.90;;;;;;5021291;28;20185;-65
2023/05/18 04:08:33;;;;;;;8.97;4.57;;;10.80;99.90;;;;;;5018228;28;20487;-66
2023/05/18 04:10:59;;;;;;;9.43;4.83;;;10.80;99.90;;;;;;5012992;28;20431;-66
2023/05/18 04:13:24;;;;;;;7.60;4.00;;;10.70;99.90;;;;;;5011147;28;20494;-65
2023/05/18 04:15:50;;;;;;;5.63;4.13;;;10.70;99.90;;;;;;5012346;28;20432;-65
2023/05/18 04:18:16;;;;;;;7.37;5.10;;;10.80;99.90;;;;;;5015351;28;20207;-65
2023/05/18 04:20:44;;;;;;;7.73;5.10;;;10.80;99.90;;;;;;5017861;28;20803;-65
2023/05/18 04:23:11;;;;;;;5.73;4.03;;;10.70;99.90;;;;;;5018317;28;20188;-66
2023/05/18 04:25:38;;;;;;;7.17;4.07;;;10.70;99.90;;;;;;5022169;28;20439;-65
2023/05/18 04:28:03;;;;;;;6.87;4.40;;;10.70;99.90;;;;;;5015530;28;20472;-66
2023/05/18 04:30:29;;;;;;;7.67;4.20;;;10.70;99.90;;;;;;5031593;28;20922;-65
2023/05/18 04:32:57;;;;;;;8.27;4.13;;;10.70;99.90;;;;;;5020527;28;20594;-66
2023/05/18 04:35:24;;;;;;;5.77;4.00;;;10.70;99.90;;;;;;5029810;28;20773;-66
2023/05/18 04:37:50;;;;;;;5.20;4.33;;;10.70;99.90;;;;;;5022943;28;20515;-67
2023/05/18 04:40:16;;;;;;;7.60;4.67;;;10.70;99.90;;;;;;5021012;28;20541;-66
2023/05/18 04:42:46;;;;;;;5.77;4.80;;;10.80;99.90;;;;;;5020194;28;20196;-66
2023/05/18 04:45:15;;;;;;;6.50;4.43;;;10.80;99.90;;;;;;5019198;28;20438;-66
2023/05/18 04:47:41;;;;;;;6.23;4.10;;;10.80;99.90;;;;;;5019176;28;20478;-66
2023/05/18 04:50:07;;;;;;;7.37;4.07;;;10.80;99.90;;;;;;5023895;28;20933;-65
2023/05/18 04:52:35;;;;;;;6.97;4.53;;;10.80;99.90;;;;;;5020722;28;20478;-66
2023/05/18 04:55:02;;;;;;;7.80;4.70;;;10.80;99.90;;;;;;5028898;28;20455;-66
2023/05/18 04:57:27;;;;;;;13.33;4.57;;;10.90;99.90;;;;;;5026204;28;20433;-66
2023/05/18 04:59:53;;;;;;;7.57;4.40;;;10.90;99.90;;;;;;5015752;28;20569;-65
2023/05/18 05:02:19;;;;;;;8.20;4.20;;;10.90;99.90;;;;;;5015115;28;20184;-64
2023/05/18 05:04:45;;;;;;;7.33;4.23;;;11.00;99.90;;;;;;5022651;28;20197;-64
2023/05/18 05:07:10;;;;;;;10.90;4.90;;;11.00;99.90;;;;;;5021241;28;20204;-64
2023/05/18 05:09:36;;;;;;;10.90;4.33;;;11.00;99.90;;;;;;5014255;28;20645;-65
2023/05/18 05:12:02;;;;;;;6.97;4.30;;;11.00;99.90;;;;;;5022369;28;20611;-65
2023/05/18 05:14:28;;;;;;;4.93;4.10;;;11.00;99.90;;;;;;5021894;28;20176;-65
2023/05/18 05:16:54;;;;;;;8.93;4.30;;;11.00;99.90;;;;;;5015044;28;20211;-65
2023/05/18 05:19:19;;;;;;;15.90;4.90;;;11.00;99.90;;;;;;5019192;28;20459;-64
2023/05/18 05:21:45;;;;;;;7.67;4.00;;;11.10;99.90;;;;;;5014282;28;20192;-64
2023/05/18 05:24:11;;;;;;;11.37;5.27;;;11.10;99.90;;;;;;5019249;28;20189;-65
2023/05/18 05:26:36;;;;;;;7.13;4.33;;;11.10;99.90;;;;;;5018033;28;20216;-65
2023/05/18 05:29:02;;;;;;;9.10;4.53;;;11.10;99.90;;;;;;5017618;28;20206;-65
2023/05/18 05:31:27;;;;;;;6.93;4.30;;;11.20;99.90;;;;;;5022495;28;20189;-65
2023/05/18 05:33:53;;;;;;;8.20;3.90;;;11.20;99.90;;;;;;5019206;28;20905;-65
2023/05/18 05:36:18;;;;;;;6.97;4.40;;;11.20;99.90;;;;;;5018790;28;20211;-65
2023/05/18 05:38:44;;;;;;;8.73;4.63;;;11.30;99.90;;;;;;5014428;28;20204;-65
2023/05/18 05:41:10;;;;;;;15.93;5.30;;;11.30;99.90;;;;;;5019077;28;20192;-65
2023/05/18 05:43:35;;;;;;;5.13;4.20;;;11.30;99.90;;;;;;5025251;28;20193;-65
2023/05/18 05:46:01;;;;;;;5.50;3.53;;;11.30;99.90;;;;;;5020886;28;20216;-65
2023/05/18 05:48:27;;;;;;;8.60;4.47;;;11.40;99.90;;;;;;5018949;28;20255;-65
2023/05/18 05:50:53;;;;;;;7.60;5.03;;;11.40;99.90;;;;;;5019171;28;20442;-65
2023/05/18 05:53:19;;;;;;;8.67;4.77;;;11.40;99.90;;;;;;5020797;28;20554;-65
2023/05/18 05:55:45;;;;;;;10.57;4.87;;;11.40;99.90;;;;;;5021558;28;20177;-64
2023/05/18 05:58:10;;;;;;;7.00;4.87;;;11.50;99.90;;;;;;5012293;28;20513;-64
2023/05/18 06:00:36;;;;;;;11.40;4.30;;;11.50;99.90;;;;;;5010975;28;20637;-64
2023/05/18 06:03:02;;;;;;;7.27;4.00;;;11.50;99.90;;;;;;5015641;28;20197;-66
2023/05/18 06:05:28;;;;;;;11.63;4.90;;;11.50;99.90;;;;;;5021658;28;20721;-64
2023/05/18 06:07:55;;;;;;;8.07;3.83;;;11.50;99.90;;;;;;5016991;28;20466;-65
2023/05/18 06:10:21;;;;;;;5.33;3.97;;;11.60;99.90;;;;;;5014136;28;20299;-66
2023/05/18 06:12:46;;;;;;;11.57;4.20;;;11.60;99.90;;;;;;5016276;28;20446;-65
2023/05/18 06:15:12;;;;;;;10.33;4.07;;;11.70;99.90;;;;;;5010340;28;20220;-65
2023/05/18 06:17:38;;;;;;;9.70;4.17;;;11.70;99.90;;;;;;5008621;28;20197;-65
2023/05/18 06:20:06;;;;;;;7.70;4.40;;;11.80;99.90;;;;;;5012490;28;20208;-65
2023/05/18 06:22:31;;;;;;;6.93;4.23;;;11.80;99.90;;;;;;5020372;28;20220;-65
2023/05/18 06:24:57;;;;;;;9.00;4.33;;;11.90;99.90;;;;;;5015577;28;20529;-66
2023/05/18 06:27:23;;;;;;;11.83;4.57;;;11.90;99.90;;;;;;5012019;28;20216;-66
2023/05/18 06:29:48;;;;;;;6.80;3.50;;;12.00;99.90;;;;;;5019636;28;20203;-65
2023/05/18 06:32:14;;;;;;;5.37;4.00;;;12.00;99.90;;;;;;5017753;28;20180;-65
2023/05/18 06:34:41;;;;;;;8.93;3.90;;;12.10;99.90;;;;;;5022709;28;20258;-66
2023/05/18 06:37:06;;;;;;;6.47;4.40;;;12.10;99.90;;;;;;5020149;28;20199;-66
2023/05/18 06:39:32;;;;;;;6.93;4.17;;;12.10;99.90;;;;;;5022049;28;20533;-64
2023/05/18 06:41:57;;;;;;;8.40;4.03;;;12.20;99.90;;;;;;5021687;28;20263;-64
2023/05/18 06:44:23;;;;;;;13.23;3.90;;;12.30;99.90;;;;;;5019397;28;20197;-65
2023/05/18 06:46:49;;;;;;;6.40;4.03;;;12.40;99.90;;;;;;5049497;28;20204;-65
2023/05/18 06:49:14;;;;;;;5.80;4.23;;;12.40;99.90;;;;;;5009906;28;20208;-65
2023/05/18 06:51:42;;;;;;;13.30;7.57;;;12.40;99.90;;;;;;5014632;28;20195;-65
2023/05/18 06:54:08;;;;;;;10.50;4.40;;;12.40;99.90;;;;;;5016355;28;20183;-65
2023/05/18 06:56:33;;;;;;;7.20;4.40;;;12.50;99.90;;;;;;5016207;28;20537;-65
2023/05/18 06:58:59;;;;;;;10.03;6.17;;;12.60;99.90;;;;;;5017905;28;20286;-65
2023/05/18 07:01:24;;;;;;;12.80;4.50;;;12.60;99.90;;;;;;5020909;28;20176;-64
2023/05/18 07:03:50;;;;;;;9.73;4.70;;;12.60;99.90;;;;;;5017991;28;20359;-64
2023/05/18 07:06:15;;;;;;;10.23;3.93;;;12.70;99.80;;;;;;5016923;28;20275;-65
2023/05/18 07:08:43;;;;;;;10.53;5.13;;;12.80;99.80;;;;;;5022939;28;20215;-65
2023/05/18 07:11:08;;;;;;;7.07;4.63;;;12.70;99.70;;;;;;5019396;28;20204;-65
2023/05/18 07:13:34;;;;;;;9.17;4.20;;;12.80;99.80;;;;;;5018347;28;20473;-65
2023/05/18 07:16:00;;;;;;;5.83;3.93;;;12.90;99.90;;;;;;5018028;28;20639;-64
2023/05/18 07:18:25;;;;;;;6.00;3.60;;;12.90;99.70;;;;;;5022204;28;20211;-65
2023/05/18 07:20:51;;;;;;;12.83;5.50;;;13.00;99.20;;;;;;5016011;28;20215;-65
2023/05/18 07:23:16;;;;;;;6.57;3.70;;;13.00;99.20;;;;;;5024965;28;20164;-65
2023/05/18 07:25:42;;;;;;;8.87;4.10;;;13.10;99.20;;;;;;5018838;28;20173;-65
2023/05/18 07:28:08;;;;;;;8.33;4.03;;;13.10;99.00;;;;;;5014371;28;20394;-65
2023/05/18 07:30:33;;;;;;;7.83;3.97;;;13.20;99.00;;;;;;5019755;28;20750;-65
2023/05/18 07:32:59;;;;;;;9.50;4.80;;;13.20;99.00;;;;;;5023292;28;20591;-65
2023/05/18 07:35:25;;;;;;;10.60;4.93;;;13.30;98.70;;;;;;5018634;28;20178;-66
2023/05/18 07:37:52;;;;;;;6.63;4.00;;;13.30;98.80;;;;;;5021793;28;20173;-65
2023/05/18 07:40:18;;;;;;;7.77;3.77;;;13.40;98.60;;;;;;5022960;28;20716;-65
2023/05/18 07:42:44;;;;;;;10.80;3.97;;;13.40;98.60;;;;;;5014640;28;20450;-63
2023/05/18 07:45:11;;;;;;;9.80;5.70;;;13.50;98.70;;;;;;5020519;28;20448;-64
2023/05/18 07:47:36;;;;;;;6.73;4.53;;;13.60;98.60;;;;;;5019917;28;20462;-65
2023/05/18 07:50:02;;;;;;;6.13;4.23;;;13.60;98.60;;;;;;5015375;28;21056;-65
2023/05/18 07:52:28;;;;;;;9.93;3.70;;;13.70;98.70;;;;;;5019513;28;20177;-65
2023/05/18 07:54:55;;;;;;;6.37;3.70;;;13.70;98.50;;;;;;5022185;28;20412;-65
2023/05/18 07:57:21;;;;;;;13.23;4.13;;;13.80;98.50;;;;;;5014954;28;20703;-65
2023/05/18 07:59:47;;;;;;;5.90;4.20;;;13.80;98.40;;;;;;5014440;28;20534;-64
2023/05/18 08:02:12;;;;;;;7.10;4.20;;;13.90;98.50;;;;;;5015782;28;20184;-65
2023/05/18 08:04:38;;;;;;;8.13;3.87;;;14.00;98.10;;;;;;5013155;28;20189;-65
2023/05/18 08:07:04;;;;;;;12.90;3.80;;;14.00;97.90;;;;;;5009562;28;20219;-64
2023/05/18 08:09:29;;;;;;;11.97;4.27;;;14.10;98.00;;;;;;5021286;28;20207;-65
2023/05/18 08:11:56;;;;;;;9.73;3.87;;;14.10;98.00;;;;;;5019167;28;20223;-66
2023/05/18 08:14:21;;;;;;;8.93;4.30;;;14.20;97.90;;;;;;5020515;28;20192;-66
2023/05/18 08:16:47;;;;;;;9.27;4.40;;;14.20;97.80;;;;;;5017064;28;20446;-64
2023/05/18 08:19:12;;;;;;;9.07;4.37;;;14.30;97.80;;;;;;5015058;28;20554;-64
2023/05/18 08:21:38;;;;;;;9.57;4.40;;;14.40;97.60;;;;;;5021297;28;20180;-65
2023/05/18 08:24:06;;;;;;;12.00;4.63;;;14.40;97.50;;;;;;5015317;28;20614;-66
2023/05/18 08:26:32;;;;;;;8.13;4.30;;;14.40;97.70;;;;;;5014890;28;20193;-66
2023/05/18 08:28:57;;;;;;;10.80;4.87;;;14.50;97.60;;;;;;5018734;28;20454;-66
2023/05/18 08:31:23;;;;;;;7.93;4.57;;;14.60;97.50;;;;;;5018680;28;20797;-66
2023/05/18 08:33:48;;;;;;;10.63;4.20;;;14.60;97.70;;;;;;5013257;28;20177;-66
2023/05/18 08:36:15;;;;;;;8.60;4.67;;;14.60;97.40;;;;;;5021830;28;20212;-66
2023/05/18 08:38:41;;;;;;;6.03;4.33;;;14.70;97.50;;;;;;5014002;28;20219;-65
2023/05/18 08:41:21;;;;;;;10.30;4.60;;;14.80;97.40;;;;;;5015695;28;20448;-67
2023/05/18 08:44:02;;;;;;;5.20;4.20;;;14.80;97.40;;;;;;5011591;28;20223;-66
2023/05/18 08:46:33;;;;;;;11.93;4.83;;;14.90;97.30;;;;;;5015497;28;21169;-66
2023/05/18 08:49:00;;;;;;;10.33;4.50;;;15.00;97.30;;;;;;5016409;28;20451;-65
2023/05/18 08:51:29;;;;;;;9.57;4.30;;;15.10;97.00;;;;;;5017865;28;20444;-67
2023/05/18 08:53:55;;;;;;;9.90;4.40;;;15.10;96.70;;;;;;5020152;28;20952;-66
2023/05/18 08:56:22;;;;;;;7.00;4.17;;;15.10;96.80;;;;;;5017286;28;20446;-66
2023/05/18 08:58:51;;;;;;;7.30;4.57;;;15.20;96.80;;;;;;5017504;28;20561;-65
2023/05/18 09:01:16;;;;;;;8.70;5.00;;;15.30;97.00;;;;;;5020408;28;20446;-66
2023/05/18 09:03:48;;;;;;;8.80;4.37;;;15.30;97.00;;;;;;5015272;28;20453;-66
2023/05/18 09:06:14;;;;;;;11.00;5.10;;;15.40;97.00;;;;;;5020864;28;20188;-67
2023/05/18 09:08:41;;;;;;;12.17;5.80;;;15.50;96.80;;;;;;5017321;28;20463;-67
2023/05/18 09:11:07;;;;;;;7.70;4.70;;;15.60;96.80;;;;;;5016917;28;20439;-67
2023/05/18 09:13:33;;;;;;;6.87;4.50;;;15.60;96.80;;;;;;5010658;28;20448;-66
2023/05/18 09:15:58;;;;;;;11.90;4.17;;;15.70;96.70;;;;;;5015588;28;20435;-66
2023/05/18 09:18:24;;;;;;;8.20;4.70;;;15.70;96.70;;;;;;5017334;28;20222;-68
2023/05/18 09:20:50;;;;;;;9.67;4.37;;;15.80;96.50;;;;;;5017055;28;20238;-66
2023/05/18 09:23:16;;;;;;;6.53;5.20;;;15.80;96.50;;;;;;5018320;28;20185;-66
2023/05/18 09:25:48;;;;;;;10.43;5.90;;;15.90;96.30;;;;;;5017564;28;20496;-67
2023/05/18 09:28:37;;;;;;;6.67;4.90;;;15.90;96.40;;;;;;5008269;28;20474;-65
2023/05/18 09:31:06;;;;;;;10.50;4.70;;;16.00;96.80;;;;;;5014692;28;20597;-65
2023/05/18 09:33:34;;;;;;;6.97;4.70;;;16.10;96.40;;;;;;5019111;28;20431;-66
2023/05/18 09:36:00;;;;;;;7.00;4.87;;;16.10;95.80;;;;;;5020056;28;20451;-66
2023/05/18 09:38:27;;;;;;;10.90;4.87;;;16.20;95.60;;;;;;5019637;28;20544;-66
2023/05/18 09:40:53;;;;;;;7.40;4.07;;;16.30;95.10;;;;;;5044634;28;20510;-66
2023/05/18 09:43:19;;;;;;;8.57;4.87;;;16.40;95.40;;;;;;5015089;28;20458;-66
2023/05/18 09:45:47;;;;;;;8.40;5.10;;;16.40;95.10;;;;;;5016595;28;20651;-66
2023/05/18 09:48:14;;;;;;;6.50;4.23;;;16.50;94.90;;;;;;5015151;28;20842;-66
2023/05/18 09:50:43;;;;;;;8.27;4.60;;;16.50;94.90;;;;;;5019283;28;20447;-65
2023/05/18 09:53:09;;;;;;;7.00;5.07;;;16.60;94.60;;;;;;5016879;28;20439;-65
2023/05/18 09:55:47;;;;;;;7.83;4.00;;;16.70;94.10;;;;;;5019268;28;20446;-65
2023/05/18 09:58:13;;;;;;;9.80;4.50;;;16.70;94.20;;;;;;5007415;28;20840;-66
2023/05/18 10:00:46;;;;;;;8.73;3.80;;;16.80;94.30;;;;;;5014648;28;20442;-66
2023/05/18 10:03:20;;;;;;;7.13;4.80;;;16.90;94.00;;;;;;5017321;28;20431;-65
2023/05/18 10:05:46;;;;;;;11.90;4.53;;;17.00;93.60;;;;;;5019663;28;20490;-64
2023/05/18 10:08:14;;;;;;;7.27;4.40;;;17.10;93.10;;;;;;5009616;28;20570;-65
2023/05/18 10:10:43;;;;;;;7.23;3.87;;;17.20;93.20;;;;;;5017637;28;20439;-65
2023/05/18 10:13:16;;;;;;;13.67;4.93;;;17.20;93.10;;;;;;5015807;28;20969;-65
2023/05/18 10:15:49;;;;;;;12.20;5.43;;;17.30;93.00;;;;;;5017606;28;20419;-65
2023/05/18 10:18:23;;;;;;;8.83;4.30;;;17.40;92.60;;;;;;5014977;28;20455;-66
2023/05/18 10:20:51;;;;;;;9.53;4.20;;;17.50;91.70;;;;;;5014083;28;20489;-66
2023/05/18 10:23:18;;;;;;;8.60;5.10;;;17.60;90.80;;;;;;5021079;28;20431;-66
2023/05/18 10:25:46;;;;;;;8.80;4.47;;;17.70;90.80;;;;;;5017998;28;20467;-66
2023/05/18 10:28:18;;;;;;;11.10;5.23;;;17.80;90.30;;;;;;5014674;28;20478;-66
2023/05/18 10:30:44;;;;;;;9.20;3.77;;;17.90;89.60;;;;;;5016551;28;20968;-65
2023/05/18 10:33:10;;;;;;;7.07;4.90;;;17.90;87.80;;;;;;5017389;28;20432;-66
2023/05/18 10:35:37;;;;;;;12.90;6.77;;;18.00;87.60;;;;;;5016340;28;20801;-66
2023/05/18 10:38:06;;;;;;;8.30;4.53;;;18.10;86.50;;;;;;5017056;28;20455;-66
2023/05/18 10:40:33;;;;;;;10.10;4.93;;;18.20;86.10;;;;;;5017366;28;20455;-66
2023/05/18 10:43:02;;;;;;;6.70;4.40;;;18.40;85.70;;;;;;5014272;28;20505;-66
2023/05/18 10:45:31;;;;;;;8.60;4.30;;;18.50;85.60;;;;;;5011731;28;20481;-69
2023/05/18 10:48:00;;;;;;;6.60;4.00;;;18.70;84.80;;;;;;5016990;28;21420;-66
2023/05/18 10:50:26;;;;;;;7.40;4.60;;;18.70;83.30;;;;;;5019091;28;20454;-66
2023/05/18 10:52:53;;;;;;;6.10;4.73;;;18.90;83.70;;;;;;5018401;28;20442;-66
2023/05/18 10:55:19;;;;;;;8.03;4.43;;;18.90;83.20;;;;;;5013249;28;20438;-66
2023/05/18 10:57:58;;;;;;;7.10;4.70;;;19.00;82.40;;;;;;5019702;28;20790;-66
2023/05/18 11:00:24;;;;;;;8.07;5.20;;;18.90;81.40;;;;;;5013072;28;20598;-66
2023/05/18 11:02:50;;;;;;;9.10;3.97;;;19.10;82.10;;;;;;5016024;28;20455;-66
2023/05/18 11:05:23;;;;;;;9.93;4.03;;;19.40;82.00;;;;;;5018324;28;20188;-66
2023/05/18 11:07:49;;;;;;;6.90;4.30;;;19.60;81.60;;;;;;5018334;28;21004;-66
2023/05/18 11:10:14;;;;;;;10.90;4.97;;;19.60;79.50;;;;;;5011469;28;20551;-65
2023/05/18 11:12:40;;;;;;;7.40;4.60;;;19.70;78.10;;;;;;5012056;28;20211;-65
2023/05/18 11:15:07;;;;;;;7.63;4.87;;;19.60;77.50;;;;;;5016636;28;20223;-65
2023/05/18 11:17:33;;;;;;;5.13;3.73;;;19.70;77.30;;;;;;5016732;28;20630;-65
2023/05/18 11:22:44;;;;;;;12.13;4.77;;;20.00;78.80;;;;;;5017314;28;20959;-67
2023/05/18 11:25:33;;;;;;;12.23;3.90;;;20.10;77.80;;;;;;5013190;28;20926;-65
2023/05/18 11:28:03;;;;;;;9.73;3.90;;;20.20;75.60;;;;;;5017004;28;20973;-65
2023/05/18 11:30:29;;;;;;;8.80;4.20;;;20.40;75.70;;;;;;5020874;28;20414;-64
2023/05/18 11:33:11;;;;;;;6.83;4.00;;;20.50;74.50;;;;;;5016707;28;20891;-64
2023/05/18 11:35:54;;;;;;;7.60;4.10;;;20.60;74.60;;;;;;5014838;28;20431;-64
2023/05/18 11:38:21;;;;;;;7.70;4.00;;;20.70;72.80;;;;;;5011037;28;20558;-63
2023/05/18 11:40:48;;;;;;;7.40;4.30;;;20.90;72.70;;;;;;5018919;28;20481;-63
2023/05/18 11:43:24;;;;;;;5.77;3.60;;;21.10;72.40;;;;;;5011136;28;20436;-63
2023/05/18 11:45:55;;;;;;;7.77;4.30;;;21.10;70.60;;;;;;5017777;28;20421;-64
2023/05/18 11:48:25;;;;;;;6.93;4.33;;;21.10;70.60;;;;;;5012772;28;20554;-63
2023/05/18 11:50:55;;;;;;;6.47;4.07;;;21.40;70.40;;;;;;5015951;28;20442;-62
2023/05/18 11:53:25;;;;;;;7.73;4.77;;;21.50;67.20;;;;;;5014433;28;20443;-63
2023/05/18 11:55:55;;;;;;;6.87;4.40;;;21.60;67.10;;;;;;5012852;28;20438;-63
2023/05/18 11:58:23;;;;;;;8.23;3.67;;;21.70;66.60;;;;;;5011513;28;20466;-64
2023/05/18 12:00:50;;;;;;;10.27;3.87;;;22.40;68.00;;;;;;5016521;28;20490;-63
2023/05/18 12:03:16;;;;;;;11.53;4.17;;;24.40;67.40;;;;;;5014487;28;20439;-63
2023/05/18 12:05:47;;;;;;;9.90;4.30;;;25.60;61.00;;;;;;5011888;28;20438;-63
2023/05/18 12:08:16;;;;;;;10.17;4.33;;;25.60;58.00;;;;;;5015942;28;20490;-63
2023/05/18 12:10:44;;;;;;;6.27;3.60;;;26.70;57.70;;;;;;5013265;28;20431;-63
2023/05/18 12:13:11;;;;;;;7.17;3.50;;;28.30;54.90;;;;;;5011948;28;20432;-63
2023/05/18 12:15:37;;;;;;;10.40;3.50;;;29.20;52.60;;;;;;5018605;28;20512;-63
2023/05/18 12:18:03;;;;;;;13.10;4.13;;;30.10;50.60;;;;;;5016942;28;20461;-63
2023/05/18 12:20:29;;;;;;;6.63;3.43;;;30.80;48.00;;;;;;5013699;28;20459;-62
2023/05/18 12:22:55;;;;;;;5.63;3.53;;;31.50;46.30;;;;;;5015941;28;20181;-63
2023/05/18 12:25:23;;;;;;;7.20;4.30;;;32.60;44.40;;;;;;5012115;28;20992;-63
2023/05/18 12:27:51;;;;;;;8.77;3.90;;;33.50;41.40;;;;;;5017087;28;20500;-63
2023/05/18 12:30:18;;;;;;;8.80;4.40;;;34.00;40.20;;;;;;5015112;28;20934;-63
2023/05/18 12:32:47;;;;;;;6.57;4.10;;;34.50;39.00;;;;;;5015656;28;20520;-63
2023/05/18 12:35:12;;;;;;;6.93;3.90;;;34.60;37.20;;;;;;5020153;28;20851;-64
2023/05/18 12:37:45;;;;;;;5.27;3.87;;;35.00;37.10;;;;;;5012283;28;20413;-63
2023/05/18 12:40:16;;;;;;;6.73;3.90;;;35.00;35.50;;;;;;5016104;28;20181;-63
2023/05/18 12:42:55;;;;;;;5.07;3.43;;;34.30;34.50;;;;;;5010768;28;20889;-63
2023/05/18 12:45:24;;;;;;;5.97;3.90;;;34.80;34.70;;;;;;5012513;28;20435;-63
2023/05/18 12:47:53;;;;;;;8.93;5.37;;;35.60;34.00;;;;;;5013755;28;20466;-64
2023/05/18 12:50:19;;;;;;;11.50;5.17;;;35.90;32.50;;;;;;5017132;28;20393;-63